Terminal Aerodrome Forecast
Issued by NWS Charleston, WV

Current Version | Previous Version | Graphics & Text | Print | Product List | Glossary On
Versions: 1 2 3 4 5 6 7 8 9 10 11 12 13 14 15 16 17 18 19 20 21 22 23 24
000
FTUS41 KRLX 240900 AAA
TAFBKW
TAF AMD
KBKW 240901Z 2409/2506 15009G15KT 6SM RA BR OVC045
     FM241400 16009G21KT 6SM SHRA BR BKN035
     FM241600 17011G27KT P6SM BKN025
     FM242000 17013G20KT 5SM SHRA BR VCTS OVC025CB
     FM250000 19012G18KT 6SM SHRA BR OVC025
     FM250300 28013G22KT P6SM OVC015=

USA.gov is the U.S. government's official web portal to all federal, state and local government web resources and services.